createdAt,value
2018-01-10T00:00:39.362Z,1.90
2018-01-10T00:02:41.193Z,1.90
2018-01-10T00:05:00.203Z,1.90
2018-01-10T00:09:37.283Z,2.00
2018-01-10T00:14:14.874Z,2.00
2018-01-10T00:16:15.880Z,2.00
2018-01-10T00:20:44.308Z,2.00
2018-01-10T00:22:45.647Z,2.10
2018-01-10T00:24:47.140Z,2.10
2018-01-10T00:26:56.233Z,2.10
2018-01-10T00:28:57.784Z,2.10
2018-01-10T00:33:34.844Z,2.10
2018-01-10T00:38:26.173Z,2.10
2018-01-10T00:45:55.751Z,2.10
2018-01-10T00:50:33.350Z,2.10
2018-01-10T00:52:34.388Z,2.10
2018-01-10T00:54:35.805Z,2.10
2018-01-10T00:56:43.998Z,2.10
2018-01-10T00:58:45.708Z,2.10
2018-01-10T01:00:55.178Z,2.10
2018-01-10T01:02:57.227Z,2.10
2018-01-10T01:07:47.161Z,2.10
2018-01-10T01:09:48.791Z,2.10
2018-01-10T01:12:15.598Z,2.10
2018-01-10T01:14:17.472Z,2.20
2018-01-10T01:16:20.744Z,2.20
2018-01-10T01:18:46.484Z,2.20
2018-01-10T01:23:22.332Z,2.30
2018-01-10T01:27:58.154Z,2.30
2018-01-10T01:30:06.554Z,2.30
2018-01-10T01:32:16.008Z,2.30
2018-01-10T01:36:48.669Z,2.40
2018-01-10T01:38:50.190Z,2.40
2018-01-10T01:41:18.982Z,2.40
2018-01-10T01:43:45.260Z,2.40
2018-01-10T01:45:46.312Z,2.40
2018-01-10T01:52:42.714Z,2.50
2018-01-10T02:04:45.247Z,2.40
2018-01-10T02:11:45.565Z,2.70
2018-01-10T02:13:48.049Z,2.80
2018-01-10T02:15:49.291Z,2.80
2018-01-10T02:18:16.099Z,2.90
2018-01-10T02:20:18.089Z,3.00
2018-01-10T02:27:23.837Z,3.00
2018-01-10T02:29:24.918Z,3.00
2018-01-10T02:33:55.396Z,3.00
2018-01-10T02:38:26.376Z,3.00
2018-01-10T02:42:55.142Z,3.00
2018-01-10T02:47:32.555Z,3.00
2018-01-10T02:52:11.399Z,3.10
2018-01-10T02:56:59.020Z,3.00
2018-01-10T03:01:28.780Z,3.10
2018-01-10T03:03:30.023Z,3.10
2018-01-10T03:10:27.275Z,3.10
2018-01-10T03:12:29.167Z,3.10
2018-01-10T03:14:31.427Z,3.10
2018-01-10T03:23:57.264Z,3.10
2018-01-10T03:25:59.641Z,3.10
2018-01-10T03:28:06.871Z,3.10
2018-01-10T03:30:12.199Z,3.10
2018-01-10T03:32:14.021Z,3.10
2018-01-10T03:39:30.194Z,3.20
2018-01-10T03:46:44.979Z,3.60
2018-01-10T03:53:46.015Z,3.70
2018-01-10T04:00:52.226Z,3.70
2018-01-10T04:05:34.078Z,3.80
2018-01-10T04:07:35.891Z,3.80
2018-01-10T04:09:37.941Z,3.80
2018-01-10T04:11:39.485Z,3.80
2018-01-10T04:23:34.167Z,3.90
2018-01-10T04:28:17.836Z,3.80
2018-01-10T04:30:34.120Z,3.90
2018-01-10T04:35:11.818Z,3.80
2018-01-10T04:37:12.978Z,3.70
2018-01-10T04:39:13.980Z,3.80
2018-01-10T04:41:21.008Z,3.80
2018-01-10T04:43:22.483Z,3.70
2018-01-10T04:45:23.539Z,3.80
2018-01-10T04:47:24.531Z,3.70
2018-01-10T04:56:50.291Z,3.70
2018-01-10T04:58:51.319Z,3.70
2018-01-10T05:00:52.296Z,3.60
2018-01-10T05:05:18.004Z,3.60
2018-01-10T05:09:46.466Z,3.70
2018-01-10T05:12:01.170Z,3.70
2018-01-10T05:16:29.891Z,3.70
2018-01-10T05:21:00.193Z,3.70
2018-01-10T05:23:01.206Z,3.70
2018-01-10T05:25:10.833Z,3.60
2018-01-10T05:27:11.956Z,3.60
2018-01-10T05:32:03.254Z,3.50
2018-01-10T05:36:41.364Z,3.50
2018-01-10T05:38:44.058Z,3.50
2018-01-10T05:40:46.058Z,3.50
2018-01-10T05:42:47.243Z,3.60
2018-01-10T05:47:30.981Z,3.70
2018-01-10T05:49:35.641Z,3.80
2018-01-10T05:51:36.728Z,3.70
2018-01-10T05:53:46.600Z,3.80
2018-01-10T05:58:25.908Z,3.90
2018-01-10T06:00:26.911Z,3.80
2018-01-10T06:02:28.053Z,3.80
2018-01-10T06:04:29.158Z,3.70
2018-01-10T06:06:30.219Z,3.80
2018-01-10T06:11:00.348Z,3.80
2018-01-10T06:13:01.587Z,3.70
2018-01-10T06:15:02.619Z,3.70
2018-01-10T06:17:03.610Z,3.70
2018-01-10T06:19:15.687Z,3.80
2018-01-10T06:21:34.756Z,3.70
2018-01-10T06:23:53.116Z,3.90
2018-01-10T06:25:54.079Z,3.90
2018-01-10T06:27:55.455Z,3.90
2018-01-10T06:30:03.558Z,3.90
2018-01-10T06:32:05.450Z,3.90
2018-01-10T06:34:24.087Z,4.00
2018-01-10T06:36:26.584Z,4.10
2018-01-10T06:41:17.965Z,4.10
2018-01-10T06:43:32.239Z,4.20
2018-01-10T06:45:51.176Z,4.20
2018-01-10T06:50:19.687Z,4.20
2018-01-10T06:52:20.770Z,4.20
2018-01-10T06:54:54.331Z,4.20
2018-01-10T06:56:55.435Z,4.20
2018-01-10T06:59:03.266Z,4.20
2018-01-10T07:06:01.521Z,4.10
2018-01-10T07:12:58.019Z,4.00
2018-01-10T07:14:58.987Z,3.90
2018-01-10T07:16:59.991Z,3.90
2018-01-10T07:19:01.002Z,3.90
2018-01-10T07:21:02.349Z,3.90
2018-01-10T07:25:26.468Z,3.80
2018-01-10T07:30:26.407Z,3.80
2018-01-10T07:35:20.411Z,3.80
2018-01-10T07:37:39.083Z,3.80
2018-01-10T07:39:40.128Z,3.70
2018-01-10T07:41:41.171Z,3.70
2018-01-10T07:44:07.614Z,3.70
2018-01-10T07:46:09.350Z,3.70
2018-01-10T07:53:16.646Z,3.70
2018-01-10T07:55:17.606Z,3.70
2018-01-10T07:57:18.655Z,3.70
2018-01-10T07:59:27.546Z,3.70
2018-01-10T08:01:30.774Z,3.70
2018-01-10T08:03:31.874Z,3.70
2018-01-10T08:05:32.857Z,3.80
2018-01-10T08:07:34.559Z,3.80
2018-01-10T08:09:35.627Z,3.80
2018-01-10T08:11:40.763Z,3.90
2018-01-10T08:13:43.385Z,4.00
2018-01-10T08:15:49.214Z,4.00
2018-01-10T08:17:51.242Z,4.00
2018-01-10T08:22:36.530Z,4.10
2018-01-10T08:24:37.521Z,4.10
2018-01-10T08:26:38.468Z,4.10
2018-01-10T08:28:39.444Z,4.10
2018-01-10T08:30:40.483Z,4.20
2018-01-10T08:32:41.846Z,4.20
2018-01-10T08:34:43.004Z,4.20
2018-01-10T08:36:44.734Z,4.20
2018-01-10T08:38:45.918Z,4.20
2018-01-10T08:40:47.046Z,4.20
2018-01-10T08:42:48.074Z,4.20
2018-01-10T08:44:49.047Z,4.20
2018-01-10T08:46:50.126Z,4.20
2018-01-10T08:48:51.091Z,4.20
2018-01-10T08:50:52.796Z,4.20
2018-01-10T08:52:56.437Z,4.30
2018-01-10T08:54:57.428Z,4.30
2018-01-10T08:56:58.378Z,4.30
2018-01-10T08:58:59.399Z,4.30
2018-01-10T09:01:02.054Z,4.30
2018-01-10T09:03:03.089Z,4.40
2018-01-10T09:05:04.145Z,4.40
2018-01-10T09:07:05.132Z,4.40
2018-01-10T09:09:06.095Z,4.40
2018-01-10T09:11:14.350Z,4.50
2018-01-10T09:13:15.446Z,4.50
2018-01-10T09:15:16.525Z,4.50
2018-01-10T09:17:17.541Z,4.60
2018-01-10T09:19:20.176Z,4.60
2018-01-10T09:21:21.277Z,4.60
2018-01-10T09:23:22.314Z,4.70
2018-01-10T09:25:24.750Z,4.70
2018-01-10T09:27:25.870Z,4.70
2018-01-10T09:29:28.352Z,4.70
2018-01-10T09:31:29.500Z,4.80
2018-01-10T09:33:30.686Z,4.90
2018-01-10T09:35:47.249Z,5.00
2018-01-10T09:37:48.339Z,5.00
2018-01-10T09:39:49.396Z,5.10
2018-01-10T09:41:51.112Z,5.10
2018-01-10T09:43:52.212Z,5.00
2018-01-10T09:45:53.960Z,5.10
2018-01-10T09:47:55.076Z,5.10
2018-01-10T09:49:56.048Z,5.20
2018-01-10T09:51:57.083Z,5.20
2018-01-10T09:53:58.043Z,5.30
2018-01-10T09:55:59.646Z,5.40
2018-01-10T09:58:00.671Z,5.40
2018-01-10T10:00:01.693Z,5.50
2018-01-10T10:02:03.500Z,5.50
2018-01-10T10:04:04.548Z,5.50
2018-01-10T10:06:05.582Z,5.60
2018-01-10T10:08:06.859Z,5.60
2018-01-10T10:10:08.396Z,5.60
2018-01-10T10:12:09.428Z,5.70
2018-01-10T10:14:10.755Z,5.80
2018-01-10T10:16:21.975Z,5.90
2018-01-10T10:20:51.659Z,6.10
2018-01-10T10:23:03.104Z,6.30
2018-01-10T10:25:21.148Z,6.30
2018-01-10T10:29:51.764Z,6.40
2018-01-10T10:31:52.758Z,6.40
2018-01-10T10:33:53.780Z,6.40
2018-01-10T10:35:55.475Z,6.40
2018-01-10T10:37:56.479Z,6.40
2018-01-10T10:39:57.522Z,6.30
2018-01-10T10:41:58.543Z,6.30
2018-01-10T10:43:59.505Z,6.20
2018-01-10T10:46:00.464Z,6.20
2018-01-10T10:48:01.476Z,6.10
2018-01-10T10:52:43.498Z,6.10
2018-01-10T10:54:44.487Z,6.10
2018-01-10T10:56:45.487Z,6.10
2018-01-10T11:01:12.370Z,6.20
2018-01-10T11:03:26.424Z,6.20
2018-01-10T11:07:53.808Z,6.30
2018-01-10T11:09:54.852Z,6.30
2018-01-10T11:11:55.829Z,6.40
2018-01-10T11:13:56.799Z,6.30
2018-01-10T11:15:57.819Z,6.40
2018-01-10T11:23:09.881Z,6.50
2018-01-10T11:25:19.425Z,6.60
2018-01-10T11:27:20.669Z,6.60
2018-01-10T11:29:21.685Z,6.70
2018-01-10T11:31:23.475Z,6.70
2018-01-10T11:33:27.402Z,6.60
2018-01-10T11:35:28.468Z,6.70
2018-01-10T11:37:29.419Z,6.70
2018-01-10T11:41:49.258Z,6.70
2018-01-10T11:43:50.229Z,6.80
2018-01-10T11:45:51.177Z,6.80
2018-01-10T11:47:52.128Z,6.80
2018-01-10T11:49:53.684Z,6.90
2018-01-10T11:51:54.663Z,7.00
2018-01-10T11:53:55.647Z,7.00
2018-01-10T11:55:56.933Z,7.10
2018-01-10T11:57:58.174Z,7.50
2018-01-10T11:59:59.196Z,7.60
2018-01-10T12:02:00.181Z,7.80
2018-01-10T12:04:01.506Z,7.90
2018-01-10T12:06:02.506Z,8.00
2018-01-10T12:08:04.946Z,8.00
2018-01-10T12:10:06.002Z,8.10
2018-01-10T12:12:08.635Z,8.00
2018-01-10T12:14:09.708Z,8.10
2018-01-10T12:16:10.667Z,8.00
2018-01-10T12:18:12.448Z,7.90
2018-01-10T12:20:13.511Z,7.90
2018-01-10T12:22:14.502Z,7.90
2018-01-10T12:24:15.503Z,7.90
2018-01-10T12:26:17.240Z,7.80
2018-01-10T12:28:18.184Z,7.80
2018-01-10T12:30:19.196Z,7.70
2018-01-10T12:32:20.949Z,7.60
2018-01-10T12:34:22.510Z,7.70
2018-01-10T12:36:23.806Z,7.70
2018-01-10T12:38:24.841Z,7.70
2018-01-10T12:40:25.791Z,7.90
2018-01-10T12:42:26.784Z,7.90
2018-01-10T12:44:27.731Z,7.90
2018-01-10T12:46:28.717Z,7.70
2018-01-10T12:48:29.687Z,7.70
2018-01-10T12:50:30.649Z,7.60
2018-01-10T12:52:31.608Z,7.60
2018-01-10T12:54:32.559Z,7.50
2018-01-10T12:56:33.546Z,7.50
2018-01-10T12:58:35.244Z,7.40
2018-01-10T13:00:36.259Z,7.40
2018-01-10T13:02:38.054Z,7.40
2018-01-10T13:04:39.125Z,7.30
2018-01-10T13:06:40.160Z,7.40
2018-01-10T13:08:41.211Z,7.40
2018-01-10T13:10:42.184Z,7.40
2018-01-10T13:12:43.211Z,7.40
2018-01-10T13:14:46.065Z,7.40
2018-01-10T13:16:47.117Z,7.40
2018-01-10T13:18:54.416Z,7.40
2018-01-10T13:23:02.078Z,7.40
2018-01-10T13:25:03.777Z,7.30
2018-01-10T13:27:04.732Z,7.30
2018-01-10T13:29:06.540Z,7.30
2018-01-10T13:31:07.535Z,7.30
2018-01-10T13:33:08.492Z,7.30
2018-01-10T13:35:10.208Z,7.40
2018-01-10T13:37:11.256Z,7.40
2018-01-10T13:39:12.263Z,7.40
2018-01-10T13:41:13.279Z,7.40
2018-01-10T13:43:14.260Z,7.40
2018-01-10T13:45:22.916Z,7.50
2018-01-10T13:47:24.196Z,7.40
2018-01-10T13:49:26.627Z,7.40
2018-01-10T13:51:30.607Z,7.40
2018-01-10T13:53:33.258Z,7.40
2018-01-10T13:55:35.099Z,7.40
2018-01-10T13:57:36.086Z,7.40
2018-01-10T13:59:39.945Z,7.40
2018-01-10T14:01:40.983Z,7.40
2018-01-10T14:03:43.617Z,7.40
2018-01-10T14:05:44.745Z,7.40
2018-01-10T14:07:45.730Z,7.40
2018-01-10T14:09:52.009Z,7.50
2018-01-10T14:11:53.843Z,7.50
2018-01-10T14:13:54.814Z,7.50
2018-01-10T14:15:55.805Z,7.60
2018-01-10T14:18:01.094Z,7.60
2018-01-10T14:20:02.263Z,7.60
2018-01-10T14:22:04.361Z,7.60
2018-01-10T14:24:06.915Z,7.70
2018-01-10T14:26:09.066Z,7.60
2018-01-10T14:28:10.130Z,7.60
2018-01-10T14:30:11.145Z,7.80
2018-01-10T14:32:12.851Z,8.40
2018-01-10T14:34:16.061Z,8.40
2018-01-10T14:36:17.117Z,8.50
2018-01-10T14:38:20.304Z,8.20
2018-01-10T14:40:21.381Z,7.90
2018-01-10T14:42:22.428Z,7.80
2018-01-10T14:44:23.406Z,7.70
2018-01-10T14:46:24.381Z,7.60
2018-01-10T14:48:26.184Z,7.50
2018-01-10T14:50:27.267Z,7.60
2018-01-10T14:52:29.143Z,7.50
2018-01-10T14:54:30.867Z,7.40
2018-01-10T14:56:32.480Z,7.30
2018-01-10T14:58:33.586Z,7.30
2018-01-10T15:00:34.547Z,7.20
2018-01-10T15:02:36.138Z,7.20
2018-01-10T15:04:37.183Z,7.10
2018-01-10T15:06:38.871Z,7.00
2018-01-10T15:08:45.308Z,7.00
2018-01-10T15:10:46.397Z,7.00
2018-01-10T15:12:47.692Z,6.90
2018-01-10T15:14:48.708Z,7.00
2018-01-10T15:16:49.700Z,6.90
2018-01-10T15:18:50.670Z,6.90
2018-01-10T15:20:53.882Z,6.80
2018-01-10T15:22:54.849Z,6.80
2018-01-10T15:24:57.671Z,6.80
2018-01-10T15:26:58.725Z,6.70
2018-01-10T15:28:59.656Z,6.70
2018-01-10T15:31:00.663Z,6.70
2018-01-10T15:33:02.377Z,6.60
2018-01-10T15:35:03.722Z,6.60
2018-01-10T15:37:05.210Z,6.60
2018-01-10T15:39:06.309Z,6.50
2018-01-10T15:41:07.329Z,6.50
2018-01-10T15:43:08.316Z,6.40
2018-01-10T15:45:09.317Z,6.40
2018-01-10T15:47:10.355Z,6.40
2018-01-10T15:49:11.336Z,6.40
2018-01-10T15:51:12.678Z,6.30
2018-01-10T15:53:13.688Z,6.40
2018-01-10T15:55:14.639Z,6.40
2018-01-10T15:57:15.607Z,6.40
2018-01-10T15:59:16.692Z,6.40
2018-01-10T16:01:17.644Z,6.30
2018-01-10T16:03:19.184Z,6.40
2018-01-10T16:05:20.259Z,6.40
2018-01-10T16:07:21.568Z,6.40
2018-01-10T16:09:22.611Z,6.40
2018-01-10T16:11:23.818Z,6.40
2018-01-10T16:13:24.830Z,6.40
2018-01-10T16:15:26.575Z,6.40
2018-01-10T16:17:27.774Z,6.40
2018-01-10T16:19:28.774Z,6.40
2018-01-10T16:21:29.876Z,6.40
2018-01-10T16:23:31.091Z,6.40
2018-01-10T16:25:32.203Z,6.40
2018-01-10T16:27:33.396Z,6.50
2018-01-10T16:29:34.490Z,6.40
2018-01-10T16:31:35.450Z,6.60
2018-01-10T16:33:36.543Z,6.50
2018-01-10T16:35:37.544Z,6.50
2018-01-10T16:37:38.555Z,6.50
2018-01-10T16:39:39.504Z,6.50
2018-01-10T16:41:40.833Z,6.40
2018-01-10T16:43:41.789Z,6.30
2018-01-10T16:45:42.752Z,6.30
2018-01-10T16:47:43.960Z,6.30
2018-01-10T16:49:44.907Z,6.30
2018-01-10T16:51:46.599Z,6.20
2018-01-10T16:53:47.685Z,6.20
2018-01-10T16:55:48.666Z,6.20
2018-01-10T16:57:49.843Z,6.10
2018-01-10T16:59:50.795Z,6.00
2018-01-10T17:01:51.873Z,5.90
2018-01-10T17:03:52.935Z,5.90
2018-01-10T17:05:54.083Z,5.70
2018-01-10T17:07:58.901Z,5.70
2018-01-10T17:09:59.915Z,5.60
2018-01-10T17:12:01.037Z,5.50
2018-01-10T17:14:02.232Z,5.40
2018-01-10T17:18:31.473Z,5.20
2018-01-10T17:23:00.764Z,5.10
2018-01-10T17:25:11.978Z,5.00
2018-01-10T17:27:13.238Z,5.00
2018-01-10T17:31:42.236Z,4.90
2018-01-10T17:33:43.232Z,4.80
2018-01-10T17:35:44.220Z,4.80
2018-01-10T17:37:45.196Z,4.70
2018-01-10T17:39:46.899Z,4.60
2018-01-10T17:41:47.887Z,4.60
2018-01-10T17:43:48.843Z,4.60
2018-01-10T17:45:49.812Z,4.50
2018-01-10T17:47:50.778Z,4.60
2018-01-10T17:49:52.890Z,4.60
2018-01-10T17:51:53.868Z,4.60
2018-01-10T17:53:54.835Z,4.60
2018-01-10T17:55:55.770Z,4.60
2018-01-10T17:57:56.706Z,4.60
2018-01-10T17:59:58.383Z,4.50
2018-01-10T18:01:59.351Z,4.50
2018-01-10T18:04:00.365Z,4.50
2018-01-10T18:06:01.540Z,4.50
2018-01-10T18:08:04.967Z,4.50
2018-01-10T18:10:08.094Z,4.50
2018-01-10T18:19:37.024Z,4.50
2018-01-10T18:21:38.049Z,4.50
2018-01-10T18:23:39.076Z,4.40
2018-01-10T18:25:40.083Z,4.40
2018-01-10T18:27:41.032Z,4.40
2018-01-10T18:29:42.056Z,4.40
2018-01-10T18:31:43.071Z,4.40
2018-01-10T18:33:44.084Z,4.40
2018-01-10T18:35:45.034Z,4.40
2018-01-10T18:37:47.042Z,4.40
2018-01-10T18:39:48.317Z,4.40
2018-01-10T18:41:49.307Z,4.40
2018-01-10T18:43:50.936Z,4.40
2018-01-10T18:46:06.801Z,4.40
2018-01-10T18:48:07.998Z,4.40
2018-01-10T18:50:09.072Z,4.50
2018-01-10T18:52:10.082Z,4.50
2018-01-10T18:54:11.076Z,4.50
2018-01-10T18:56:12.049Z,4.50
2018-01-10T18:58:16.701Z,4.50
2018-01-10T19:00:18.801Z,4.50
2018-01-10T19:02:20.437Z,4.50
2018-01-10T19:04:21.662Z,4.30
2018-01-10T19:06:26.370Z,4.30
2018-01-10T19:08:27.495Z,4.30
2018-01-10T19:10:31.321Z,4.30
2018-01-10T19:14:41.116Z,4.40
2018-01-10T19:16:42.161Z,4.50
2018-01-10T19:18:43.612Z,4.50
2018-01-10T19:20:44.750Z,4.60
2018-01-10T19:22:46.140Z,4.60
2018-01-10T19:24:47.204Z,4.60
2018-01-10T19:26:49.255Z,4.60
2018-01-10T19:29:11.761Z,4.60
2018-01-10T19:31:17.391Z,4.60
2018-01-10T19:33:18.457Z,4.70
2018-01-10T19:35:19.803Z,4.70
2018-01-10T19:37:20.894Z,4.60
2018-01-10T19:39:22.195Z,4.60
2018-01-10T19:41:24.165Z,4.70
2018-01-10T19:43:25.248Z,4.70
2018-01-10T19:45:27.104Z,4.70
2018-01-10T19:47:28.171Z,4.70
2018-01-10T19:49:29.388Z,4.70
2018-01-10T19:51:30.788Z,4.70
2018-01-10T19:53:31.847Z,4.70
2018-01-10T19:55:32.932Z,4.70
2018-01-10T19:57:34.209Z,4.80
2018-01-10T19:59:35.321Z,4.80
2018-01-10T20:01:36.428Z,4.90
2018-01-10T20:03:37.612Z,5.00
2018-01-10T20:05:39.358Z,5.00
2018-01-10T20:10:07.952Z,5.10
2018-01-10T20:12:09.384Z,5.10
2018-01-10T20:16:39.634Z,5.10
2018-01-10T20:18:40.802Z,5.00
2018-01-10T20:20:43.826Z,5.00
2018-01-10T20:22:51.368Z,4.90
2018-01-10T20:24:52.535Z,4.90
2018-01-10T20:27:03.681Z,4.80
2018-01-10T20:29:30.832Z,4.80
2018-01-10T20:31:34.009Z,4.70
2018-01-10T20:33:36.412Z,4.60
2018-01-10T20:38:30.723Z,4.40
2018-01-10T20:42:59.592Z,4.30
2018-01-10T20:45:20.481Z,4.30
2018-01-10T20:47:21.616Z,4.20
2018-01-10T20:49:22.818Z,4.10
2018-01-10T20:51:45.227Z,4.10
2018-01-10T20:53:46.434Z,4.00
2018-01-10T20:55:47.647Z,4.00
2018-01-10T20:58:26.681Z,4.00
2018-01-10T21:00:28.307Z,3.90
2018-01-10T21:02:39.405Z,3.90
2018-01-10T21:07:17.130Z,3.80
2018-01-10T21:09:18.172Z,3.80
2018-01-10T21:11:19.411Z,3.80
2018-01-10T21:13:20.539Z,3.80
2018-01-10T21:15:21.844Z,3.80
2018-01-10T21:17:23.857Z,3.70
2018-01-10T21:19:24.891Z,3.80
2018-01-10T21:21:25.911Z,3.70
2018-01-10T21:23:26.947Z,3.70
2018-01-10T21:25:28.080Z,3.70
2018-01-10T21:27:30.135Z,3.60
2018-01-10T21:29:56.932Z,3.60
2018-01-10T21:31:57.944Z,3.60
2018-01-10T21:33:58.901Z,3.50
2018-01-10T21:35:59.895Z,3.50
2018-01-10T21:38:00.874Z,3.50
2018-01-10T21:40:04.075Z,3.40
2018-01-10T21:42:06.270Z,3.40
2018-01-10T21:44:07.240Z,3.40
2018-01-10T21:46:08.215Z,3.30
2018-01-10T21:50:46.039Z,3.30
2018-01-10T21:52:47.039Z,3.30
2018-01-10T21:54:49.276Z,3.20
2018-01-10T21:56:50.707Z,3.20
2018-01-10T21:58:58.349Z,3.10
2018-01-10T22:01:00.376Z,3.10
2018-01-10T22:03:01.404Z,3.10
2018-01-10T22:05:02.384Z,3.10
2018-01-10T22:07:03.401Z,3.10
2018-01-10T22:09:04.416Z,3.10
2018-01-10T22:11:05.440Z,3.10
2018-01-10T22:13:06.449Z,3.10
2018-01-10T22:15:07.466Z,3.10
2018-01-10T22:17:08.467Z,3.10
2018-01-10T22:19:09.943Z,3.10
2018-01-10T22:21:28.748Z,3.10
2018-01-10T22:23:29.727Z,3.00
2018-01-10T22:27:50.956Z,3.00
2018-01-10T22:29:51.960Z,2.90
2018-01-10T22:31:58.672Z,3.00
2018-01-10T22:36:31.134Z,2.80
2018-01-10T22:38:32.137Z,2.80
2018-01-10T22:40:33.137Z,2.80
2018-01-10T22:42:34.860Z,2.70
2018-01-10T22:44:35.815Z,2.80
2018-01-10T22:46:36.767Z,2.80
2018-01-10T22:48:38.512Z,2.70
2018-01-10T22:50:39.556Z,2.70
2018-01-10T22:52:40.503Z,2.70
2018-01-10T22:54:41.445Z,2.70
2018-01-10T22:56:42.484Z,2.70
2018-01-10T22:58:43.518Z,2.80
2018-01-10T23:00:44.543Z,2.80
2018-01-10T23:02:46.333Z,2.90
2018-01-10T23:04:47.418Z,3.00
2018-01-10T23:06:48.426Z,3.00
2018-01-10T23:08:50.452Z,3.10
2018-01-10T23:10:51.655Z,3.10
2018-01-10T23:12:52.689Z,3.10
2018-01-10T23:14:53.735Z,3.10
2018-01-10T23:16:54.699Z,3.10
2018-01-10T23:18:55.738Z,3.10
2018-01-10T23:20:56.789Z,3.00
2018-01-10T23:22:57.809Z,3.00
2018-01-10T23:25:00.412Z,3.00
2018-01-10T23:27:03.556Z,3.00
2018-01-10T23:29:04.573Z,2.90
2018-01-10T23:31:07.682Z,3.00
2018-01-10T23:33:08.716Z,2.90
2018-01-10T23:35:09.698Z,2.80
2018-01-10T23:37:26.636Z,2.80
2018-01-10T23:39:28.453Z,2.80
2018-01-10T23:41:29.640Z,2.70
2018-01-10T23:43:30.713Z,2.70
2018-01-10T23:45:31.721Z,2.70
2018-01-10T23:47:32.673Z,2.60
2018-01-10T23:49:35.468Z,2.60
2018-01-10T23:51:36.520Z,2.50
2018-01-10T23:53:37.540Z,2.50
2018-01-10T23:55:38.504Z,2.50
2018-01-10T23:57:39.467Z,2.50
